createdAt,value
2023-04-15T00:00:18.001Z,5.37
2023-04-15T00:03:22.999Z,5.57
2023-04-15T00:06:26.510Z,5.40
2023-04-15T00:09:29.050Z,5.82
2023-04-15T00:12:31.834Z,6.60
2023-04-15T00:15:34.313Z,5.83
2023-04-15T00:18:37.687Z,6.00
2023-04-15T00:21:40.201Z,6.18
2023-04-15T00:24:43.087Z,5.18
2023-04-15T00:27:45.547Z,6.30
2023-04-15T00:30:50.749Z,5.70
2023-04-15T00:33:53.339Z,6.30
2023-04-15T00:36:58.501Z,6.43
2023-04-15T00:40:01.583Z,6.25
2023-04-15T00:43:04.463Z,5.97
2023-04-15T00:46:07.980Z,6.50
2023-04-15T00:49:11.314Z,6.13
2023-04-15T00:52:14.520Z,5.82
2023-04-15T00:55:17.083Z,5.60
2023-04-15T00:58:19.729Z,6.00
2023-04-15T01:01:24.956Z,5.00
2023-04-15T01:04:27.902Z,5.13
2023-04-15T01:07:32.002Z,5.13
2023-04-15T01:10:35.443Z,5.50
2023-04-15T01:13:38.152Z,4.80
2023-04-15T01:16:41.156Z,4.60
2023-04-15T01:19:43.955Z,4.60
2023-04-15T01:22:47.038Z,4.68
2023-04-15T01:25:51.615Z,4.40
2023-04-15T01:28:54.895Z,4.35
2023-04-15T01:31:57.717Z,4.33
2023-04-15T01:35:03.223Z,4.30
2023-04-15T01:38:07.828Z,5.15
2023-04-15T01:41:10.404Z,6.18
2023-04-15T01:44:12.931Z,6.68
2023-04-15T01:47:16.074Z,6.73
2023-04-15T01:50:19.138Z,7.20
2023-04-15T01:53:21.672Z,6.20
2023-04-15T01:56:26.915Z,6.63
2023-04-15T01:59:31.397Z,6.38
2023-04-15T02:02:35.062Z,6.10
2023-04-15T02:05:37.679Z,6.55
2023-04-15T02:08:40.131Z,6.55
2023-04-15T02:11:43.946Z,6.15
2023-04-15T02:14:46.473Z,5.57
2023-04-15T02:17:51.218Z,5.90
2023-04-15T02:20:53.904Z,6.32
2023-04-15T02:23:57.198Z,5.60
2023-04-15T02:26:59.721Z,5.88
2023-04-15T02:30:03.274Z,5.68
2023-04-15T02:33:05.886Z,5.90
2023-04-15T02:36:09.548Z,5.05
2023-04-15T02:39:12.958Z,5.78
2023-04-15T02:42:15.463Z,4.85
2023-04-15T02:45:19.696Z,5.32
2023-04-15T02:48:22.914Z,4.90
2023-04-15T02:51:26.067Z,5.38
2023-04-15T02:54:28.937Z,5.15
2023-04-15T02:57:32.222Z,5.35
2023-04-15T03:00:40.561Z,5.72
2023-04-15T03:03:43.102Z,5.63
2023-04-15T03:06:46.945Z,6.60
2023-04-15T03:09:49.960Z,5.70
2023-04-15T03:12:53.231Z,5.10
2023-04-15T03:15:57.686Z,5.68
2023-04-15T03:19:00.630Z,5.00
2023-04-15T03:22:04.184Z,4.78
2023-04-15T03:25:07.015Z,5.95
2023-04-15T03:28:09.583Z,6.07
2023-04-15T03:31:12.370Z,6.88
2023-04-15T03:34:14.902Z,6.50
2023-04-15T03:37:17.409Z,8.00
2023-04-15T03:40:21.845Z,9.45
2023-04-15T03:43:24.417Z,6.38
2023-04-15T03:46:27.082Z,6.78
2023-04-15T03:49:29.565Z,7.50
2023-04-15T03:52:32.033Z,7.78
2023-04-15T03:55:34.460Z,7.70
2023-04-15T03:58:37.003Z,8.18
2023-04-15T04:01:39.499Z,6.15
2023-04-15T04:04:42.261Z,5.53
2023-04-15T04:07:45.086Z,6.97
2023-04-15T04:10:48.056Z,7.00
2023-04-15T04:13:50.718Z,6.03
2023-04-15T04:16:53.381Z,5.88
2023-04-15T04:19:56.206Z,5.80
2023-04-15T04:22:58.899Z,5.18
2023-04-15T04:26:01.528Z,6.75
2023-04-15T04:29:04.460Z,5.93
2023-04-15T04:32:07.157Z,5.18
2023-04-15T04:35:09.711Z,5.73
2023-04-15T04:38:12.240Z,6.07
2023-04-15T04:41:14.710Z,5.93
2023-04-15T04:44:17.771Z,6.05
2023-04-15T04:47:20.816Z,6.60
2023-04-15T04:50:23.559Z,6.10
2023-04-15T04:53:26.586Z,6.40
2023-04-15T04:56:29.110Z,6.15
2023-04-15T04:59:31.786Z,6.90
2023-04-15T05:02:35.370Z,6.53
2023-04-15T05:05:39.596Z,6.00
2023-04-15T05:08:42.280Z,6.93
2023-04-15T05:11:44.735Z,5.97
2023-04-15T05:14:47.569Z,5.75
2023-04-15T05:17:50.155Z,5.63
2023-04-15T05:20:52.728Z,5.47
2023-04-15T05:23:55.283Z,5.90
2023-04-15T05:26:57.858Z,6.10
2023-04-15T05:30:00.581Z,5.97
2023-04-15T05:33:03.994Z,5.70
2023-04-15T05:36:06.725Z,5.23
2023-04-15T05:39:09.729Z,5.03
2023-04-15T05:42:12.241Z,4.53
2023-04-15T05:45:14.824Z,4.60
2023-04-15T05:48:17.336Z,4.63
2023-04-15T05:51:19.990Z,4.80
2023-04-15T05:54:23.343Z,4.68
2023-04-15T05:57:25.876Z,4.70
2023-04-15T06:00:28.476Z,4.60
2023-04-15T06:03:31.209Z,5.47
2023-04-15T06:06:34.750Z,4.90
2023-04-15T06:09:38.116Z,5.35
2023-04-15T06:12:40.614Z,5.32
2023-04-15T06:15:43.332Z,5.05
2023-04-15T06:18:46.065Z,5.47
2023-04-15T06:21:49.357Z,5.30
2023-04-15T06:24:52.067Z,4.35
2023-04-15T06:27:54.515Z,4.72
2023-04-15T06:30:56.966Z,4.43
2023-04-15T06:33:59.398Z,4.40
2023-04-15T06:37:02.646Z,4.90
2023-04-15T06:40:08.570Z,5.22
2023-04-15T06:43:11.097Z,4.55
2023-04-15T06:46:13.773Z,4.40
2023-04-15T06:49:16.533Z,4.90
2023-04-15T06:52:19.487Z,5.33
2023-04-15T06:55:22.810Z,5.40
2023-04-15T06:58:25.391Z,4.50
2023-04-15T07:01:28.524Z,5.03
2023-04-15T07:04:32.962Z,4.35
2023-04-15T07:07:36.330Z,4.23
2023-04-15T07:10:38.861Z,4.20
2023-04-15T07:13:41.397Z,4.47
2023-04-15T07:16:43.884Z,4.35
2023-04-15T07:19:46.491Z,4.25
2023-04-15T07:22:49.867Z,3.90
2023-04-15T07:25:53.186Z,4.22
2023-04-15T07:28:55.711Z,4.50
2023-04-15T07:31:58.252Z,4.30
2023-04-15T07:35:02.291Z,4.55
2023-04-15T07:38:04.920Z,4.40
2023-04-15T07:41:07.500Z,5.65
2023-04-15T07:44:10.550Z,4.90
2023-04-15T07:47:14.252Z,4.32
2023-04-15T07:50:17.568Z,3.90
2023-04-15T07:53:20.842Z,3.77
2023-04-15T07:56:23.422Z,3.70
2023-04-15T07:59:30.081Z,3.53
2023-04-15T08:02:33.487Z,3.30
2023-04-15T08:05:36.198Z,3.80
2023-04-15T08:08:38.703Z,3.47
2023-04-15T08:11:41.717Z,3.22
2023-04-15T08:14:44.413Z,3.28
2023-04-15T08:17:47.248Z,2.70
2023-04-15T08:20:49.805Z,2.92
2023-04-15T08:23:53.529Z,3.07
2023-04-15T08:26:57.700Z,2.88
2023-04-15T08:30:02.130Z,3.13
2023-04-15T08:33:07.265Z,2.70
2023-04-15T08:36:10.129Z,2.83
2023-04-15T08:39:12.822Z,1.70
2023-04-15T08:42:23.540Z,1.65
2023-04-15T08:45:26.398Z,1.30
2023-04-15T08:48:32.639Z,1.25
2023-04-15T08:51:35.623Z,1.25
2023-04-15T08:54:38.832Z,1.23
2023-04-15T08:57:41.614Z,0.55
2023-04-15T09:00:44.276Z,0.77
2023-04-15T09:03:50.556Z,0.68
2023-04-15T09:06:53.183Z,0.95
2023-04-15T09:09:55.906Z,0.90
2023-04-15T09:12:58.915Z,1.00
2023-04-15T09:16:04.530Z,0.73
2023-04-15T09:19:27.959Z,0.70
2023-04-15T09:22:33.741Z,0.93
2023-04-15T09:25:36.649Z,0.67
2023-04-15T09:28:43.591Z,0.98
2023-04-15T09:31:47.089Z,1.25
2023-04-15T09:34:49.821Z,0.75
2023-04-15T09:37:53.589Z,1.20
2023-04-15T09:40:56.192Z,0.83
2023-04-15T09:43:58.847Z,0.80
2023-04-15T09:47:02.030Z,0.55
2023-04-15T09:50:04.883Z,0.70
2023-04-15T09:53:09.992Z,0.50
2023-04-15T09:56:12.895Z,0.90
2023-04-15T09:59:15.712Z,0.55
2023-04-15T10:02:21.130Z,0.50
2023-04-15T10:05:24.096Z,0.40
2023-04-15T10:08:29.839Z,0.30
2023-04-15T10:11:34.325Z,0.83
2023-04-15T10:14:38.965Z,0.90
2023-04-15T10:17:45.430Z,0.55
2023-04-15T10:20:50.557Z,0.40
2023-04-15T10:23:54.253Z,0.70
2023-04-15T10:26:59.751Z,0.53
2023-04-15T10:30:04.234Z,0.73
2023-04-15T10:33:10.339Z,0.40
2023-04-15T10:36:14.148Z,0.30
2023-04-15T10:39:34.755Z,0.43
2023-04-15T10:42:37.821Z,0.50
2023-04-15T10:45:45.028Z,0.40
2023-04-15T10:48:49.893Z,0.98
2023-04-15T10:51:57.478Z,1.80
2023-04-15T10:55:24.518Z,1.50
2023-04-15T10:58:42.357Z,1.40
2023-04-15T11:02:00.262Z,1.20
2023-04-15T11:05:03.891Z,1.33
2023-04-15T11:08:06.755Z,1.08
2023-04-15T11:11:09.319Z,1.73
2023-04-15T11:14:16.341Z,0.57
2023-04-15T11:17:28.880Z,0.98
2023-04-15T11:20:32.519Z,0.80
2023-04-15T11:23:49.643Z,0.30
2023-04-15T11:26:57.711Z,0.50
2023-04-15T11:30:00.369Z,0.70
2023-04-15T11:33:05.941Z,0.65
2023-04-15T11:36:08.408Z,0.57
2023-04-15T11:39:11.100Z,0.47
2023-04-15T11:42:18.439Z,0.70
2023-04-15T11:45:21.268Z,0.60
2023-04-15T11:48:27.612Z,0.60
2023-04-15T11:51:34.050Z,0.50
2023-04-15T11:54:37.580Z,0.65
2023-04-15T11:57:40.163Z,0.40
2023-04-15T12:00:57.759Z,0.30
2023-04-15T12:04:01.800Z,0.35
2023-04-15T12:07:07.728Z,0.40
2023-04-15T12:10:10.675Z,0.20
2023-04-15T12:13:13.395Z,0.40
2023-04-15T12:16:20.086Z,0.37
2023-04-15T12:19:24.777Z,0.10
2023-04-15T12:22:27.333Z,0.20
2023-04-15T12:25:35.974Z,0.20
2023-04-15T12:28:41.786Z,0.38
2023-04-15T12:31:52.273Z,0.10
2023-04-15T12:34:55.375Z,0.20
2023-04-15T12:37:57.868Z,0.20
2023-04-15T12:41:00.475Z,0.20
2023-04-15T12:44:04.139Z,0.70
2023-04-15T12:47:07.916Z,0.10
2023-04-15T12:50:10.733Z,0.10
2023-04-15T12:53:13.881Z,0.10
2023-04-15T12:56:17.565Z,0.10
2023-04-15T12:59:21.243Z,0.20
2023-04-15T13:02:25.898Z,0.30
2023-04-15T13:05:28.493Z,0.20
2023-04-15T13:08:31.558Z,0.10
2023-04-15T13:11:34.352Z,0.17
2023-04-15T13:14:37.268Z,0.20
2023-04-15T13:17:39.890Z,0.20
2023-04-15T13:20:42.526Z,0.17
2023-04-15T13:23:45.050Z,0.20
2023-04-15T13:26:50.366Z,0.95
2023-04-15T13:29:54.594Z,0.88
2023-04-15T13:32:57.243Z,0.70
2023-04-15T13:35:59.775Z,0.80
2023-04-15T13:39:03.280Z,0.90
2023-04-15T13:42:06.064Z,0.80
2023-04-15T13:45:09.939Z,0.88
2023-04-15T13:48:12.474Z,1.13
2023-04-15T13:51:14.975Z,1.15
2023-04-15T13:54:17.528Z,1.27
2023-04-15T13:57:20.147Z,1.27
2023-04-15T14:00:22.823Z,1.48
2023-04-15T14:03:26.458Z,1.10
2023-04-15T14:06:31.703Z,1.02
2023-04-15T14:09:35.558Z,1.40
2023-04-15T14:12:38.403Z,1.40
2023-04-15T14:15:41.727Z,1.00
2023-04-15T14:18:44.824Z,0.87
2023-04-15T14:21:47.595Z,1.00
2023-04-15T14:24:53.156Z,1.35
2023-04-15T14:27:55.903Z,0.57
2023-04-15T14:30:58.918Z,0.80
2023-04-15T14:34:01.610Z,1.40
2023-04-15T14:37:05.121Z,1.10
2023-04-15T14:40:08.402Z,1.92
2023-04-15T14:43:11.381Z,1.80
2023-04-15T14:46:14.652Z,2.35
2023-04-15T14:49:17.249Z,2.13
2023-04-15T14:52:20.014Z,2.17
2023-04-15T14:55:22.862Z,2.50
2023-04-15T14:58:25.496Z,2.80
2023-04-15T15:01:28.412Z,3.65
2023-04-15T15:04:33.483Z,3.67
2023-04-15T15:07:40.918Z,2.80
2023-04-15T15:10:49.339Z,3.58
2023-04-15T15:13:52.336Z,3.92
2023-04-15T15:16:54.915Z,3.58
2023-04-15T15:19:57.683Z,2.77
2023-04-15T15:23:00.954Z,2.92
2023-04-15T15:26:03.486Z,2.88
2023-04-15T15:29:06.357Z,2.80
2023-04-15T15:32:09.405Z,2.10
2023-04-15T15:35:11.851Z,2.00
2023-04-15T15:38:15.052Z,1.80
2023-04-15T15:41:17.750Z,2.42
2023-04-15T15:44:20.237Z,1.88
2023-04-15T15:47:23.184Z,2.00
2023-04-15T15:50:25.880Z,3.10
2023-04-15T15:53:28.670Z,3.92
2023-04-15T15:56:31.455Z,2.28
2023-04-15T15:59:34.448Z,1.20
2023-04-15T16:03:04.303Z,1.20
2023-04-15T16:06:00.198Z,1.00
2023-04-15T16:09:03.278Z,0.38
2023-04-15T16:12:06.074Z,0.60
2023-04-15T16:15:10.879Z,0.08
2023-04-15T16:18:13.428Z,0.25
2023-04-15T16:21:16.128Z,0.30
2023-04-15T16:24:18.953Z,0.20
2023-04-15T16:27:21.418Z,0.08
2023-04-15T16:30:24.243Z,0.00
2023-04-15T16:33:26.860Z,0.10
2023-04-15T16:36:29.517Z,0.00
2023-04-15T16:39:32.498Z,0.13
2023-04-15T16:42:35.023Z,0.38
2023-04-15T16:45:38.213Z,1.05
2023-04-15T16:48:40.712Z,0.40
2023-04-15T16:51:43.454Z,0.40
2023-04-15T16:54:46.093Z,0.15
2023-04-15T16:58:02.473Z,0.05
2023-04-15T17:01:06.378Z,0.17
2023-04-15T17:04:09.256Z,0.30
2023-04-15T17:07:12.093Z,0.10
2023-04-15T17:10:14.700Z,0.50
2023-04-15T17:13:17.377Z,0.75
2023-04-15T17:16:20.276Z,1.48
2023-04-15T17:19:23.254Z,1.95
2023-04-15T17:22:26.058Z,0.70
2023-04-15T17:25:28.514Z,1.48
2023-04-15T17:28:31.161Z,1.98
2023-04-15T17:31:33.883Z,2.75
2023-04-15T17:34:50.191Z,11.40
2023-04-15T17:37:53.775Z,29.50
2023-04-15T17:40:56.266Z,6.90
2023-04-15T17:43:59.001Z,9.27
2023-04-15T17:47:02.471Z,8.82
2023-04-15T17:50:05.840Z,9.50
2023-04-15T17:53:09.129Z,4.13
2023-04-15T17:56:11.886Z,3.30
2023-04-15T17:59:16.579Z,12.07
2023-04-15T18:02:19.583Z,14.70
2023-04-15T18:05:22.337Z,12.02
2023-04-15T18:08:25.302Z,12.47
2023-04-15T18:11:28.197Z,11.68
2023-04-15T18:14:34.659Z,10.40
2023-04-15T18:17:38.027Z,9.73
2023-04-15T18:20:40.599Z,11.15
2023-04-15T18:23:44.019Z,11.03
2023-04-15T18:26:48.858Z,12.00
2023-04-15T18:29:52.072Z,12.57
2023-04-15T18:32:54.763Z,9.10
2023-04-15T18:35:57.737Z,42.47
2023-04-15T18:39:00.481Z,29.00
2023-04-15T18:42:03.476Z,35.67
2023-04-15T18:45:07.738Z,56.17
2023-04-15T18:48:10.412Z,30.77
2023-04-15T18:51:13.121Z,23.92
2023-04-15T18:54:16.626Z,18.63
2023-04-15T18:57:23.316Z,30.13
2023-04-15T19:00:36.463Z,30.85
2023-04-15T19:03:39.725Z,20.23
2023-04-15T19:06:42.870Z,17.20
2023-04-15T19:09:46.714Z,12.93
2023-04-15T19:12:49.537Z,13.13
2023-04-15T19:15:52.640Z,16.50
2023-04-15T19:18:55.565Z,14.93
2023-04-15T19:21:58.236Z,14.10
2023-04-15T19:25:01.225Z,14.23
2023-04-15T19:28:04.137Z,14.93
2023-04-15T19:31:07.832Z,13.02
2023-04-15T19:34:11.206Z,12.93
2023-04-15T19:37:16.362Z,8.90
2023-04-15T19:40:19.264Z,9.57
2023-04-15T19:43:22.930Z,11.88
2023-04-15T19:46:26.949Z,10.23
2023-04-15T19:49:30.435Z,9.98
2023-04-15T19:52:34.449Z,8.75
2023-04-15T19:55:37.376Z,7.80
2023-04-15T19:58:40.857Z,8.18
2023-04-15T20:01:43.489Z,8.10
2023-04-15T20:04:46.396Z,8.73
2023-04-15T20:07:52.346Z,9.13
2023-04-15T20:10:56.868Z,7.47
2023-04-15T20:13:59.607Z,8.68
2023-04-15T20:17:02.544Z,8.85
2023-04-15T20:20:07.961Z,8.05
2023-04-15T20:23:11.347Z,9.27
2023-04-15T20:26:13.866Z,8.97
2023-04-15T20:29:16.576Z,8.77
2023-04-15T20:32:19.268Z,9.38
2023-04-15T20:35:22.190Z,9.20
2023-04-15T20:38:25.021Z,19.33
2023-04-15T20:41:29.128Z,9.00
2023-04-15T20:44:32.001Z,9.82
2023-04-15T20:47:34.707Z,10.15
2023-04-15T20:50:38.974Z,10.07
2023-04-15T20:53:42.330Z,7.88
2023-04-15T20:56:44.948Z,9.83
2023-04-15T20:59:47.864Z,10.52
2023-04-15T21:02:51.185Z,10.07
2023-04-15T21:05:53.747Z,10.02
2023-04-15T21:08:56.880Z,10.77
2023-04-15T21:12:01.550Z,11.37
2023-04-15T21:15:05.446Z,12.40
2023-04-15T21:18:08.008Z,12.57
2023-04-15T21:21:11.675Z,10.52
2023-04-15T21:24:14.323Z,10.52
2023-04-15T21:27:16.740Z,12.67
2023-04-15T21:30:19.339Z,13.23
2023-04-15T21:33:21.993Z,14.25
2023-04-15T21:36:24.556Z,11.77
2023-04-15T21:39:30.430Z,9.98
2023-04-15T21:42:32.975Z,10.13
2023-04-15T21:45:36.640Z,10.43
2023-04-15T21:48:39.383Z,9.98
2023-04-15T21:51:41.998Z,9.80
2023-04-15T21:54:44.570Z,10.32
2023-04-15T21:57:48.358Z,10.57
2023-04-15T22:00:52.441Z,10.75
2023-04-15T22:03:55.260Z,11.63
2023-04-15T22:07:01.730Z,11.55
2023-04-15T22:10:04.787Z,9.75
2023-04-15T22:13:11.096Z,9.43
2023-04-15T22:16:13.633Z,9.43
2023-04-15T22:19:16.175Z,9.75
2023-04-15T22:22:19.045Z,10.85
2023-04-15T22:25:22.546Z,9.65
2023-04-15T22:28:25.552Z,9.97
2023-04-15T22:31:28.195Z,10.25
2023-04-15T22:34:31.014Z,9.80
2023-04-15T22:37:33.598Z,10.00
2023-04-15T22:40:36.123Z,10.32
2023-04-15T22:43:38.606Z,10.23
2023-04-15T22:46:41.332Z,10.02
2023-04-15T22:49:44.973Z,10.18
2023-04-15T22:52:48.360Z,9.32
2023-04-15T22:55:51.765Z,9.95
2023-04-15T22:58:54.526Z,9.00
2023-04-15T23:01:59.472Z,8.80
2023-04-15T23:05:06.291Z,8.48
2023-04-15T23:08:15.448Z,8.05
2023-04-15T23:11:18.553Z,9.35
2023-04-15T23:14:21.450Z,9.30
2023-04-15T23:17:24.013Z,9.95
2023-04-15T23:20:26.559Z,9.13
2023-04-15T23:23:29.048Z,9.77
2023-04-15T23:26:31.738Z,10.52
2023-04-15T23:29:34.254Z,11.87
2023-04-15T23:32:36.894Z,11.98
2023-04-15T23:35:39.843Z,11.73
2023-04-15T23:38:42.412Z,12.23
2023-04-15T23:41:44.996Z,11.57
2023-04-15T23:44:47.597Z,12.47
2023-04-15T23:47:50.140Z,13.05
2023-04-15T23:50:52.663Z,11.30
2023-04-15T23:53:55.215Z,10.82
2023-04-15T23:56:57.703Z,11.80
